Time;durP1;ratioP1;P1;durP2;ratioP2;P2;SDS_P1;SDS_P2;PMS_P1;PMS_P2;Temp;Humidity;BMP_temperature;BMP_pressure;BME280_temperature;BME280_humidity;BME280_pressure;Samples;Min_cycle;Max_cycle;Signal;HPM_P1;HPM_P2
2022/06/10 00:00:30;;;;;;;2.10;1.90;;;20.80;49.20;;;;;;4983958;28;20459;-59
2022/06/10 00:02:56;;;;;;;1.77;1.67;;;20.80;49.20;;;;;;4978986;28;20447;-59
2022/06/10 00:05:24;;;;;;;2.00;1.90;;;20.80;49.20;;;;;;4981015;28;21008;-59
2022/06/10 00:07:51;;;;;;;1.60;1.50;;;20.80;49.20;;;;;;4981088;28;20217;-59
2022/06/10 00:10:21;;;;;;;1.60;1.50;;;20.80;49.20;;;;;;4981745;28;20564;-59
2022/06/10 00:12:48;;;;;;;1.67;1.57;;;20.80;49.20;;;;;;4979465;28;20513;-59
2022/06/10 00:15:15;;;;;;;1.90;1.80;;;20.80;49.30;;;;;;4980949;28;20447;-59
2022/06/10 00:17:42;;;;;;;1.70;1.60;;;20.80;49.20;;;;;;4982454;28;20421;-59
2022/06/10 00:20:10;;;;;;;2.13;2.03;;;20.90;49.30;;;;;;4982339;28;21011;-59
2022/06/10 00:22:35;;;;;;;1.90;1.80;;;20.80;49.20;;;;;;4982514;28;20539;-59
2022/06/10 00:25:01;;;;;;;1.77;1.67;;;20.80;49.20;;;;;;4980378;28;20559;-59
2022/06/10 00:27:27;;;;;;;1.90;1.80;;;20.80;49.20;;;;;;4980397;28;20292;-59
2022/06/10 00:29:53;;;;;;;1.70;1.60;;;20.80;49.20;;;;;;4985274;28;20228;-59
2022/06/10 00:32:18;;;;;;;1.93;1.83;;;20.80;49.10;;;;;;4982677;28;20309;-59
2022/06/10 00:34:44;;;;;;;1.80;1.70;;;20.80;49.20;;;;;;4981712;28;20483;-59
2022/06/10 00:37:10;;;;;;;1.73;1.63;;;20.80;49.10;;;;;;4981922;28;20228;-59
2022/06/10 00:39:36;;;;;;;1.97;1.87;;;20.80;49.10;;;;;;4980762;28;20236;-59
2022/06/10 00:42:04;;;;;;;1.80;1.70;;;20.80;49.20;;;;;;4998323;28;20989;-59
2022/06/10 00:44:38;;;;;;;1.67;1.57;;;20.80;49.20;;;;;;4980703;28;20212;-59
2022/06/10 00:47:12;;;;;;;1.90;1.80;;;20.80;49.20;;;;;;4977689;28;20486;-59
2022/06/10 00:49:39;;;;;;;1.50;1.40;;;20.80;49.20;;;;;;4982270;28;20496;-59
2022/06/10 00:52:08;;;;;;;1.80;1.70;;;20.80;49.20;;;;;;4984013;28;20459;-59
2022/06/10 00:54:38;;;;;;;2.13;1.90;;;20.80;49.20;;;;;;4980998;28;20466;-59
2022/06/10 00:57:03;;;;;;;1.83;1.73;;;20.80;49.20;;;;;;4980885;28;20470;-59
2022/06/10 00:59:36;;;;;;;2.30;2.10;;;20.80;49.10;;;;;;4979907;28;20909;-59
2022/06/10 01:02:05;;;;;;;1.53;1.43;;;20.90;49.20;;;;;;4982912;28;20249;-59
2022/06/10 01:04:31;;;;;;;2.10;2.00;;;20.80;49.10;;;;;;4980477;28;20454;-59
2022/06/10 01:06:57;;;;;;;1.90;1.80;;;20.80;49.10;;;;;;4977031;28;20571;-59
2022/06/10 01:09:24;;;;;;;1.80;1.70;;;20.80;49.20;;;;;;4979768;28;20244;-59
2022/06/10 01:12:27;;;;;;;1.70;1.60;;;20.80;49.10;;;;;;4979506;28;20501;-59
2022/06/10 01:15:14;;;;;;;1.80;1.70;;;20.90;49.20;;;;;;4980868;28;20872;-59
2022/06/10 01:17:46;;;;;;;1.90;1.80;;;20.80;49.20;;;;;;4980471;28;20491;-59
2022/06/10 01:20:26;;;;;;;1.77;1.67;;;20.80;49.90;;;;;;4976549;28;20514;-59
2022/06/10 01:23:03;;;;;;;2.07;1.97;;;20.80;49.20;;;;;;4980284;28;20546;-59
2022/06/10 01:25:46;;;;;;;1.97;1.87;;;20.80;49.20;;;;;;4977047;28;20475;-59
2022/06/10 01:28:50;;;;;;;2.17;2.07;;;20.80;49.20;;;;;;4981222;28;20458;-59
2022/06/10 01:31:41;;;;;;;2.00;1.90;;;20.80;49.10;;;;;;4977402;28;20469;-59
2022/06/10 01:34:35;;;;;;;1.70;1.60;;;20.80;49.10;;;;;;4975238;28;20458;-59
2022/06/10 01:37:27;;;;;;;1.67;1.57;;;20.80;49.10;;;;;;4994614;28;20452;-59
2022/06/10 01:40:11;;;;;;;1.70;1.60;;;20.80;49.10;;;;;;4967397;28;20829;-59
2022/06/10 01:42:49;;;;;;;1.70;1.60;;;20.80;49.10;;;;;;4979823;28;20525;-59
2022/06/10 01:45:33;;;;;;;2.20;2.10;;;20.80;49.10;;;;;;4975428;28;20422;-59
2022/06/10 01:48:17;;;;;;;2.00;1.90;;;20.80;49.10;;;;;;4975324;28;20491;-59
2022/06/10 01:51:01;;;;;;;1.80;1.70;;;20.80;49.20;;;;;;4978509;28;20477;-59
2022/06/10 01:53:55;;;;;;;1.80;1.70;;;20.80;49.10;;;;;;4983740;28;20992;-59
2022/06/10 01:56:35;;;;;;;1.97;1.87;;;20.80;49.10;;;;;;4983058;28;20449;-59
2022/06/10 01:59:08;;;;;;;1.80;1.70;;;20.80;49.20;;;;;;4980855;28;20478;-59
2022/06/10 02:01:47;;;;;;;1.67;1.57;;;20.80;49.20;;;;;;4978448;28;20451;-59
2022/06/10 02:04:18;;;;;;;1.63;1.53;;;20.80;49.10;;;;;;4976776;28;20463;-59
2022/06/10 02:07:07;;;;;;;1.70;1.60;;;20.80;49.20;;;;;;4985361;28;20849;-59
2022/06/10 02:09:42;;;;;;;1.70;1.60;;;20.80;49.10;;;;;;4981619;28;20954;-59
2022/06/10 02:12:21;;;;;;;2.00;1.90;;;20.80;49.20;;;;;;4980171;28;20467;-59
2022/06/10 02:14:59;;;;;;;1.60;1.50;;;20.80;49.20;;;;;;4983698;28;20454;-59
2022/06/10 02:17:30;;;;;;;1.80;1.70;;;20.80;49.20;;;;;;4981810;28;20867;-59
2022/06/10 02:19:59;;;;;;;2.00;1.90;;;20.80;49.10;;;;;;4993255;28;20466;-59
2022/06/10 02:22:24;;;;;;;1.70;1.60;;;20.80;49.10;;;;;;4980196;28;20465;-59
2022/06/10 02:24:57;;;;;;;1.80;1.70;;;20.80;49.20;;;;;;4982195;28;20458;-59
2022/06/10 02:27:31;;;;;;;1.73;1.63;;;20.80;49.20;;;;;;4978415;28;20221;-59
2022/06/10 02:30:06;;;;;;;4.80;1.77;;;20.80;49.10;;;;;;4981190;28;20437;-59
2022/06/10 02:32:34;;;;;;;1.83;1.73;;;20.80;49.10;;;;;;4977947;28;20525;-59
2022/06/10 02:35:00;;;;;;;1.70;1.60;;;20.80;49.10;;;;;;4980099;28;20481;-59
2022/06/10 02:37:34;;;;;;;1.80;1.70;;;20.80;49.10;;;;;;4983353;28;20446;-59
2022/06/10 02:40:08;;;;;;;1.60;1.50;;;20.80;49.10;;;;;;4984164;28;20330;-61
2022/06/10 02:42:55;;;;;;;1.83;1.73;;;20.80;49.10;;;;;;4985575;28;20481;-60
2022/06/10 02:45:42;;;;;;;1.70;1.60;;;20.80;49.10;;;;;;4982431;28;20530;-59
2022/06/10 02:48:10;;;;;;;1.70;1.60;;;20.80;49.10;;;;;;4980952;28;20494;-59
2022/06/10 02:50:37;;;;;;;1.90;1.80;;;20.80;49.20;;;;;;4982683;28;20467;-59
2022/06/10 02:53:03;;;;;;;2.00;1.90;;;20.80;49.10;;;;;;4979766;28;20522;-59
2022/06/10 02:55:30;;;;;;;1.87;1.77;;;20.80;49.10;;;;;;4985227;28;20835;-59
2022/06/10 03:01:12;;;;;;;1.90;1.80;;;20.80;49.10;;;;;;4983223;28;20474;-59
2022/06/10 03:03:59;;;;;;;2.00;1.90;;;20.80;49.10;;;;;;4981738;28;20503;-59
2022/06/10 03:06:55;;;;;;;1.80;1.70;;;20.80;49.10;;;;;;4982064;28;20459;-59
2022/06/10 03:10:05;;;;;;;2.07;1.97;;;20.80;49.10;;;;;;4980606;28;20925;-59
2022/06/10 03:13:00;;;;;;;1.90;1.80;;;20.80;49.10;;;;;;4978471;28;20586;-59
2022/06/10 03:15:46;;;;;;;2.17;2.07;;;20.80;49.10;;;;;;4985863;28;20524;-59
2022/06/10 03:18:30;;;;;;;1.90;1.80;;;20.80;49.10;;;;;;4983148;28;20797;-59
2022/06/10 03:21:18;;;;;;;1.80;1.70;;;20.80;49.20;;;;;;4979865;28;20517;-60
2022/06/10 03:23:58;;;;;;;1.70;1.60;;;20.80;49.20;;;;;;4984149;28;20454;-59
2022/06/10 03:26:40;;;;;;;1.80;1.70;;;20.80;49.20;;;;;;4985611;28;20822;-59
2022/06/10 03:29:30;;;;;;;1.90;1.80;;;20.80;49.20;;;;;;4984147;28;20459;-59
2022/06/10 03:32:09;;;;;;;1.50;1.40;;;20.80;49.20;;;;;;4983531;28;20481;-59
2022/06/10 03:34:40;;;;;;;1.70;1.60;;;20.80;49.20;;;;;;4986263;28;20473;-59
2022/06/10 03:37:07;;;;;;;1.73;1.63;;;20.80;49.10;;;;;;4984949;28;20506;-59
2022/06/10 03:39:34;;;;;;;1.87;1.77;;;20.80;49.20;;;;;;4982035;28;20467;-59
2022/06/10 03:42:12;;;;;;;1.53;1.43;;;20.80;49.20;;;;;;4984379;28;20471;-59
2022/06/10 03:44:39;;;;;;;1.67;1.57;;;20.80;49.10;;;;;;4981557;28;20454;-59
2022/06/10 03:47:06;;;;;;;1.90;1.80;;;20.80;49.10;;;;;;4980812;28;20785;-59
2022/06/10 03:49:42;;;;;;;1.80;1.70;;;20.80;49.10;;;;;;4982293;28;20506;-59
2022/06/10 03:52:15;;;;;;;3.57;2.53;;;20.80;49.10;;;;;;4979191;28;20474;-59
2022/06/10 03:54:41;;;;;;;2.00;1.90;;;20.80;49.10;;;;;;4981839;28;20506;-59
2022/06/10 03:57:07;;;;;;;2.00;1.90;;;20.80;49.20;;;;;;4982945;28;20452;-59
2022/06/10 03:59:33;;;;;;;1.90;1.80;;;20.80;49.10;;;;;;4981715;28;20220;-59
2022/06/10 04:01:58;;;;;;;1.80;1.70;;;20.80;49.10;;;;;;4998455;28;20525;-59
2022/06/10 04:04:24;;;;;;;1.87;1.77;;;20.80;49.10;;;;;;4980733;28;20249;-59
2022/06/10 04:06:50;;;;;;;2.37;1.80;;;20.80;49.10;;;;;;4981220;28;20625;-59
2022/06/10 04:09:15;;;;;;;1.90;1.80;;;20.80;49.10;;;;;;4981115;28;20737;-59
2022/06/10 04:11:41;;;;;;;1.80;1.70;;;20.80;49.10;;;;;;4983334;28;20237;-59
2022/06/10 04:14:07;;;;;;;1.80;1.70;;;20.80;49.10;;;;;;4981625;28;20243;-59
2022/06/10 04:16:33;;;;;;;1.83;1.73;;;20.80;49.10;;;;;;4981710;28;20256;-59
2022/06/10 04:18:58;;;;;;;2.00;1.90;;;20.80;49.20;;;;;;4982329;28;20232;-59
2022/06/10 04:21:24;;;;;;;1.83;1.73;;;20.80;49.10;;;;;;4982472;28;20462;-59
2022/06/10 04:23:50;;;;;;;1.90;1.80;;;20.80;49.10;;;;;;4981464;28;20250;-59
2022/06/10 04:26:15;;;;;;;1.97;1.87;;;20.80;49.10;;;;;;4980244;28;20774;-59
2022/06/10 04:28:41;;;;;;;1.93;1.83;;;20.80;49.10;;;;;;4984148;28;20278;-59
2022/06/10 04:31:07;;;;;;;1.60;1.50;;;20.80;49.20;;;;;;4982214;28;20290;-59
2022/06/10 04:33:34;;;;;;;1.90;1.80;;;20.80;49.10;;;;;;4985654;28;20283;-61
2022/06/10 04:36:00;;;;;;;1.67;1.57;;;20.80;49.10;;;;;;4978891;28;20229;-60
2022/06/10 04:38:26;;;;;;;1.70;1.60;;;20.80;49.10;;;;;;4981443;28;20814;-59
2022/06/10 04:40:51;;;;;;;1.83;1.73;;;20.80;49.10;;;;;;4979617;28;20225;-59
2022/06/10 04:43:17;;;;;;;1.80;1.70;;;20.80;49.10;;;;;;4982782;28;20308;-59
2022/06/10 04:45:50;;;;;;;2.00;1.90;;;20.80;49.10;;;;;;4981412;28;20221;-59
2022/06/10 04:48:16;;;;;;;2.10;2.00;;;20.80;49.10;;;;;;4983735;28;20974;-60
2022/06/10 04:50:43;;;;;;;2.00;1.90;;;20.80;49.00;;;;;;4982297;28;20963;-60
2022/06/10 04:53:10;;;;;;;1.93;1.83;;;20.80;49.00;;;;;;4982063;28;20448;-59
2022/06/10 04:55:36;;;;;;;2.90;1.70;;;20.80;49.00;;;;;;4983534;28;20452;-59
2022/06/10 04:58:02;;;;;;;1.80;1.70;;;20.80;49.00;;;;;;4980500;28;20473;-59
2022/06/10 05:00:32;;;;;;;1.93;1.83;;;20.80;49.00;;;;;;4979183;28;20445;-58
2022/06/10 05:02:58;;;;;;;1.80;1.70;;;20.80;49.00;;;;;;4977298;28;20939;-58
2022/06/10 05:05:25;;;;;;;1.90;1.80;;;20.80;49.00;;;;;;4980398;28;20473;-59
2022/06/10 05:07:51;;;;;;;1.70;1.60;;;20.80;49.00;;;;;;4984546;28;20469;-59
2022/06/10 05:10:18;;;;;;;1.80;1.70;;;20.80;49.00;;;;;;4985561;28;20462;-58
2022/06/10 05:12:46;;;;;;;1.80;1.70;;;20.80;49.00;;;;;;4979787;28;20229;-59
2022/06/10 05:15:20;;;;;;;3.60;2.17;;;20.80;49.00;;;;;;4981145;28;20438;-58
2022/06/10 05:17:47;;;;;;;1.80;1.70;;;20.80;49.00;;;;;;4978588;28;20464;-59
2022/06/10 05:20:19;;;;;;;1.80;1.70;;;20.90;49.10;;;;;;4982664;28;20429;-60
2022/06/10 05:22:45;;;;;;;1.90;1.70;;;20.80;49.00;;;;;;4979835;28;20476;-58
2022/06/10 05:25:11;;;;;;;1.90;1.80;;;20.90;49.10;;;;;;4981538;28;21040;-59
2022/06/10 05:27:37;;;;;;;1.70;1.60;;;20.80;48.90;;;;;;4978558;28;20225;-59
2022/06/10 05:30:04;;;;;;;2.00;1.90;;;20.90;49.00;;;;;;4980915;28;20523;-59
2022/06/10 05:32:29;;;;;;;2.10;2.00;;;20.90;49.00;;;;;;4980533;28;20446;-59
2022/06/10 05:34:55;;;;;;;2.07;1.97;;;20.90;49.10;;;;;;4978988;28;20465;-58
2022/06/10 05:37:25;;;;;;;1.80;1.70;;;20.90;49.10;;;;;;4978708;28;20233;-58
2022/06/10 05:39:52;;;;;;;2.00;1.90;;;20.90;49.10;;;;;;4980964;28;20328;-58
2022/06/10 05:42:18;;;;;;;2.10;2.00;;;20.90;49.20;;;;;;4981288;28;20424;-59
2022/06/10 05:44:46;;;;;;;2.10;2.00;;;20.90;49.10;;;;;;4978622;28;20451;-58
2022/06/10 05:47:19;;;;;;;2.17;2.07;;;20.90;49.10;;;;;;4980067;28;20451;-58
2022/06/10 05:49:47;;;;;;;2.20;2.10;;;20.80;49.00;;;;;;4981320;28;20540;-58
2022/06/10 05:52:15;;;;;;;1.80;1.70;;;20.90;49.10;;;;;;4977886;28;20855;-58
2022/06/10 05:54:44;;;;;;;2.30;2.20;;;20.90;49.10;;;;;;4984053;28;20458;-58
2022/06/10 05:57:10;;;;;;;4.20;1.90;;;20.90;49.10;;;;;;4980350;28;20451;-58
2022/06/10 05:59:36;;;;;;;1.80;1.70;;;20.90;49.10;;;;;;4979339;28;20458;-58
2022/06/10 06:02:03;;;;;;;2.27;2.03;;;20.90;49.10;;;;;;4983687;28;20455;-58
2022/06/10 06:04:29;;;;;;;1.83;1.63;;;20.90;49.80;;;;;;4984385;28;20778;-58
2022/06/10 06:06:55;;;;;;;1.90;1.80;;;20.90;49.10;;;;;;4980727;28;20541;-58
2022/06/10 06:09:22;;;;;;;1.90;1.80;;;20.90;49.00;;;;;;4983459;28;20234;-58
2022/06/10 06:11:48;;;;;;;1.83;1.73;;;20.90;49.10;;;;;;4986712;28;20993;-58
2022/06/10 06:14:18;;;;;;;2.10;2.00;;;20.90;49.10;;;;;;4983677;28;20463;-58
2022/06/10 06:16:59;;;;;;;2.00;1.90;;;20.90;49.80;;;;;;4988467;28;20446;-58
2022/06/10 06:19:26;;;;;;;1.90;1.80;;;20.90;49.10;;;;;;4985938;28;20450;-58
2022/06/10 06:21:53;;;;;;;1.90;1.80;;;20.90;49.10;;;;;;4985209;28;20489;-58
2022/06/10 06:24:18;;;;;;;2.23;2.13;;;20.90;49.10;;;;;;4986757;28;20959;-58
2022/06/10 06:26:44;;;;;;;1.70;1.60;;;20.80;49.00;;;;;;4983819;28;20458;-58
2022/06/10 06:29:10;;;;;;;1.90;1.80;;;20.90;49.10;;;;;;4988802;28;20220;-58
2022/06/10 06:31:38;;;;;;;1.90;1.80;;;20.90;49.10;;;;;;4984339;28;20256;-58
2022/06/10 06:34:04;;;;;;;2.23;1.90;;;20.90;49.10;;;;;;4985320;28;20554;-58
2022/06/10 06:36:37;;;;;;;1.67;1.57;;;20.90;49.10;;;;;;4984992;28;20442;-58
2022/06/10 06:39:04;;;;;;;1.97;1.77;;;20.90;49.10;;;;;;4983532;28;20474;-58
2022/06/10 06:41:30;;;;;;;1.83;1.73;;;20.90;49.10;;;;;;4981645;28;20461;-59
2022/06/10 06:43:56;;;;;;;2.10;2.00;;;20.90;49.10;;;;;;4984144;28;20446;-59
2022/06/10 06:46:21;;;;;;;1.60;1.50;;;20.90;49.10;;;;;;4982407;28;20249;-58
2022/06/10 06:48:47;;;;;;;1.73;1.63;;;20.90;49.10;;;;;;4982354;28;20270;-58
2022/06/10 06:51:13;;;;;;;1.90;1.80;;;20.90;49.10;;;;;;4986549;28;20492;-58
2022/06/10 06:53:39;;;;;;;1.70;1.60;;;20.90;49.10;;;;;;4982710;28;20228;-58
2022/06/10 06:56:05;;;;;;;1.80;1.70;;;20.90;49.10;;;;;;4985347;28;20426;-58
2022/06/10 06:58:31;;;;;;;1.80;1.70;;;20.90;49.10;;;;;;4982322;28;20571;-58
2022/06/10 07:00:57;;;;;;;1.80;1.70;;;20.90;49.20;;;;;;4983713;28;20466;-58
2022/06/10 07:03:23;;;;;;;1.90;1.80;;;20.90;49.20;;;;;;4984026;28;20848;-58
2022/06/10 07:05:49;;;;;;;2.00;1.90;;;20.90;49.10;;;;;;4983923;28;20208;-58
2022/06/10 07:08:17;;;;;;;1.80;1.70;;;20.90;49.10;;;;;;4983792;28;20461;-58
2022/06/10 07:10:42;;;;;;;1.83;1.73;;;20.90;49.10;;;;;;4987680;28;20256;-58
2022/06/10 07:13:08;;;;;;;1.80;1.70;;;20.90;49.10;;;;;;4981518;28;20487;-58
2022/06/10 07:15:37;;;;;;;1.80;1.70;;;20.90;49.10;;;;;;4984164;28;20236;-58
2022/06/10 07:18:03;;;;;;;1.90;1.80;;;20.90;49.80;;;;;;4986395;28;20228;-58
2022/06/10 07:20:31;;;;;;;1.60;1.50;;;20.90;49.10;;;;;;4985553;28;20514;-58
2022/06/10 07:22:59;;;;;;;2.00;1.90;;;20.90;49.10;;;;;;4982216;28;20221;-59
2022/06/10 07:25:26;;;;;;;1.90;1.80;;;20.90;49.10;;;;;;4987195;28;20971;-58
2022/06/10 07:27:55;;;;;;;1.70;1.60;;;20.90;49.10;;;;;;4985666;28;20514;-58
2022/06/10 07:30:28;;;;;;;1.77;1.67;;;20.90;49.10;;;;;;4988054;28;20485;-58
2022/06/10 07:32:53;;;;;;;1.83;1.73;;;20.90;49.10;;;;;;4989575;28;20786;-58
2022/06/10 07:35:21;;;;;;;1.90;1.80;;;20.90;49.10;;;;;;4988428;28;20546;-58
2022/06/10 07:37:48;;;;;;;2.03;1.50;;;20.90;49.10;;;;;;4983305;28;20337;-58
2022/06/10 07:43:04;;;;;;;2.17;1.97;;;20.90;49.10;;;;;;5000785;28;20542;-58
2022/06/10 07:45:31;;;;;;;1.67;1.57;;;20.90;49.10;;;;;;4985922;28;20529;-58
2022/06/10 07:47:56;;;;;;;1.60;1.50;;;20.90;49.10;;;;;;4983845;28;20815;-58
2022/06/10 07:50:23;;;;;;;1.80;1.70;;;20.90;49.10;;;;;;4984753;28;20557;-58
2022/06/10 07:52:49;;;;;;;1.90;1.80;;;20.90;49.10;;;;;;4982460;28;20283;-58
2022/06/10 07:55:16;;;;;;;1.83;1.73;;;20.90;49.10;;;;;;4982144;28;20454;-58
2022/06/10 07:57:42;;;;;;;1.70;1.60;;;20.90;49.10;;;;;;4983298;28;20458;-58
2022/06/10 08:00:10;;;;;;;1.70;1.60;;;20.90;49.10;;;;;;4982686;28;20522;-58
2022/06/10 08:02:37;;;;;;;1.87;1.50;;;20.90;49.10;;;;;;4984762;28;20248;-58
2022/06/10 08:05:03;;;;;;;1.90;1.70;;;20.90;49.10;;;;;;4984181;28;20453;-58
2022/06/10 08:07:28;;;;;;;1.80;1.70;;;20.90;49.10;;;;;;4980866;28;20451;-58
2022/06/10 08:09:54;;;;;;;1.50;1.40;;;20.90;49.10;;;;;;4981952;28;20428;-60
2022/06/10 08:12:20;;;;;;;1.70;1.60;;;20.90;49.10;;;;;;4982872;28;20232;-58
2022/06/10 08:14:45;;;;;;;1.50;1.40;;;20.90;49.10;;;;;;4984314;28;20600;-58
2022/06/10 08:17:11;;;;;;;1.50;1.40;;;20.90;49.10;;;;;;4979727;28;20233;-58
2022/06/10 08:19:36;;;;;;;1.50;1.40;;;20.90;49.80;;;;;;4982350;28;20232;-58
2022/06/10 08:24:46;;;;;;;1.50;1.40;;;20.90;49.10;;;;;;4982861;28;20240;-58
2022/06/10 08:27:12;;;;;;;1.57;1.47;;;20.80;49.10;;;;;;4984206;28;20466;-58
2022/06/10 08:29:37;;;;;;;1.80;1.70;;;20.90;49.20;;;;;;4981827;28;20224;-58
2022/06/10 08:32:03;;;;;;;1.53;1.43;;;20.90;49.20;;;;;;4979872;28;20244;-59
2022/06/10 08:34:29;;;;;;;1.60;1.50;;;20.90;49.20;;;;;;4996079;28;20247;-58
2022/06/10 08:36:54;;;;;;;1.50;1.40;;;20.90;49.20;;;;;;4981649;28;20248;-58
2022/06/10 08:39:20;;;;;;;1.40;1.30;;;20.90;49.20;;;;;;4976719;28;20224;-58
2022/06/10 08:41:56;;;;;;;1.83;1.73;;;20.90;49.10;;;;;;4989416;28;20229;-58
2022/06/10 08:44:58;;;;;;;2.30;1.60;;;20.80;49.10;;;;;;4981977;28;20279;-58
2022/06/10 08:47:46;;;;;;;1.63;1.53;;;20.80;49.10;;;;;;4958374;28;20967;-58
2022/06/10 08:50:36;;;;;;;1.70;1.60;;;20.80;49.10;;;;;;4986170;28;20454;-58
2022/06/10 08:53:35;;;;;;;1.77;1.60;;;20.80;49.10;;;;;;4979641;28;20667;-58
2022/06/10 08:56:05;;;;;;;1.57;1.47;;;20.80;49.10;;;;;;4985040;28;20458;-58
2022/06/10 08:58:48;;;;;;;1.60;1.50;;;20.80;49.10;;;;;;4985012;28;20538;-58
2022/06/10 09:01:19;;;;;;;1.67;1.57;;;20.80;49.10;;;;;;4981910;28;20592;-58
2022/06/10 09:04:02;;;;;;;1.40;1.30;;;20.90;49.20;;;;;;4984156;28;20461;-58
2022/06/10 09:06:42;;;;;;;2.00;1.50;;;20.80;49.10;;;;;;4980798;28;21348;-58
2022/06/10 09:09:13;;;;;;;2.47;1.37;;;20.80;49.10;;;;;;4983776;28;20948;-58
2022/06/10 09:11:53;;;;;;;1.53;1.43;;;20.80;49.10;;;;;;4982222;28;20442;-58
2022/06/10 09:14:22;;;;;;;1.53;1.43;;;20.80;49.90;;;;;;4981347;28;20474;-58
2022/06/10 09:17:03;;;;;;;1.57;1.47;;;20.80;49.10;;;;;;4981532;28;20772;-58
2022/06/10 09:19:53;;;;;;;1.60;1.50;;;20.80;49.10;;;;;;4981855;28;20925;-58
2022/06/10 09:22:33;;;;;;;1.47;1.37;;;20.80;49.90;;;;;;4977728;28;20489;-58
2022/06/10 09:25:08;;;;;;;1.90;1.30;;;20.80;49.10;;;;;;4996940;28;20901;-58
2022/06/10 09:27:38;;;;;;;1.40;1.30;;;20.80;49.10;;;;;;4979158;28;20497;-58
2022/06/10 09:30:07;;;;;;;1.60;1.50;;;20.80;49.10;;;;;;4982935;28;20553;-58
2022/06/10 09:32:47;;;;;;;1.33;1.20;;;20.80;49.10;;;;;;4978491;28;20455;-58
2022/06/10 09:35:25;;;;;;;2.10;1.40;;;20.80;49.10;;;;;;4979603;28;20482;-58
2022/06/10 09:38:06;;;;;;;1.50;1.40;;;20.80;49.10;;;;;;4978647;28;20486;-58
2022/06/10 09:40:36;;;;;;;1.40;1.30;;;20.80;49.10;;;;;;4982059;28;20461;-58
2022/06/10 09:43:26;;;;;;;1.47;1.37;;;20.80;49.10;;;;;;4982031;28;20455;-58
2022/06/10 09:46:03;;;;;;;1.30;1.20;;;20.80;49.10;;;;;;4981016;28;20470;-58
2022/06/10 09:48:47;;;;;;;3.03;1.37;;;20.80;49.10;;;;;;4979473;28;20821;-58
2022/06/10 09:51:40;;;;;;;1.30;1.20;;;20.80;49.10;;;;;;4980783;28;20472;-58
2022/06/10 09:54:46;;;;;;;1.50;1.40;;;20.80;49.10;;;;;;4980756;28;20798;-58
2022/06/10 09:57:23;;;;;;;1.30;1.20;;;20.80;49.10;;;;;;4980329;28;20466;-58
2022/06/10 10:00:24;;;;;;;1.40;1.30;;;20.80;49.10;;;;;;4979038;28;20461;-58
2022/06/10 10:03:24;;;;;;;1.53;1.40;;;20.80;49.10;;;;;;4984531;28;20488;-58
2022/06/10 10:06:27;;;;;;;1.30;1.20;;;20.80;49.10;;;;;;4974554;28;20600;-58
2022/06/10 10:09:09;;;;;;;1.53;1.40;;;20.80;49.10;;;;;;4984198;28;20496;-58
2022/06/10 10:11:58;;;;;;;1.57;1.20;;;20.80;49.10;;;;;;4982337;28;20470;-58
2022/06/10 10:15:00;;;;;;;1.40;1.30;;;20.80;49.20;;;;;;4984407;28;20458;-58
2022/06/10 10:17:54;;;;;;;1.43;1.33;;;20.80;49.10;;;;;;4977793;28;20466;-58
2022/06/10 10:20:42;;;;;;;1.23;1.13;;;20.80;49.10;;;;;;4983505;28;20459;-58
2022/06/10 10:23:23;;;;;;;1.23;1.13;;;20.80;49.20;;;;;;4982240;28;20613;-58
2022/06/10 10:25:49;;;;;;;1.33;1.23;;;20.80;49.10;;;;;;4983110;28;20470;-58
2022/06/10 10:28:18;;;;;;;1.40;1.30;;;20.80;49.90;;;;;;4977774;28;20447;-58
2022/06/10 10:31:04;;;;;;;1.30;1.20;;;20.80;49.10;;;;;;4977935;28;20244;-58
2022/06/10 10:33:30;;;;;;;1.50;1.40;;;20.80;49.10;;;;;;4982156;28;20462;-58
2022/06/10 10:35:57;;;;;;;1.40;1.30;;;20.80;49.10;;;;;;4979439;28;20760;-59
2022/06/10 10:38:36;;;;;;;1.30;1.20;;;20.80;49.10;;;;;;4998290;28;20681;-58
2022/06/10 10:41:26;;;;;;;1.73;1.30;;;20.80;49.10;;;;;;4981477;28;20564;-58
2022/06/10 10:43:56;;;;;;;1.10;1.10;;;20.80;49.10;;;;;;4979258;28;20470;-58
2022/06/10 10:46:24;;;;;;;1.10;1.00;;;20.80;49.10;;;;;;4978952;28;20455;-58
2022/06/10 10:48:50;;;;;;;1.50;1.40;;;20.80;49.20;;;;;;4979961;28;20478;-58
2022/06/10 10:51:21;;;;;;;1.20;1.10;;;20.80;49.10;;;;;;4993654;28;20508;-60
2022/06/10 10:53:56;;;;;;;1.90;1.30;;;20.80;49.10;;;;;;4974504;28;20219;-58
2022/06/10 10:56:32;;;;;;;1.40;1.30;;;20.80;49.10;;;;;;4978819;28;20461;-58
2022/06/10 10:58:58;;;;;;;1.30;1.20;;;20.80;49.10;;;;;;4980900;28;20466;-59
2022/06/10 11:01:45;;;;;;;1.30;1.20;;;20.80;49.10;;;;;;4986240;28;20536;-58
2022/06/10 11:04:33;;;;;;;1.50;1.40;;;20.80;49.30;;;;;;4983552;28;20955;-58
2022/06/10 11:07:09;;;;;;;1.50;1.40;;;20.80;49.10;;;;;;4983869;28;20478;-58
2022/06/10 11:09:43;;;;;;;1.30;1.20;;;20.80;49.10;;;;;;4983800;28;20478;-58
2022/06/10 11:12:15;;;;;;;1.50;1.40;;;20.80;49.10;;;;;;4982032;28;20449;-58
2022/06/10 11:14:41;;;;;;;1.33;1.23;;;20.80;49.10;;;;;;4985295;28;20428;-58
2022/06/10 11:17:14;;;;;;;2.03;1.17;;;20.80;49.10;;;;;;4986144;28;21094;-58
2022/06/10 11:19:54;;;;;;;1.10;1.10;;;20.80;49.10;;;;;;4983297;28;20428;-60
2022/06/10 11:22:30;;;;;;;1.17;1.10;;;20.80;49.10;;;;;;4981804;28;20966;-59
2022/06/10 11:25:17;;;;;;;1.30;1.20;;;20.80;49.10;;;;;;4981780;28;20477;-58
2022/06/10 11:27:48;;;;;;;1.20;1.10;;;20.80;49.20;;;;;;4987548;28;20466;-58
2022/06/10 11:30:14;;;;;;;1.37;1.27;;;20.80;49.10;;;;;;4983013;28;20441;-58
2022/06/10 11:32:49;;;;;;;1.50;1.40;;;20.80;49.10;;;;;;4983113;28;20459;-58
2022/06/10 11:35:23;;;;;;;1.40;1.30;;;20.80;49.10;;;;;;4988581;28;20217;-58
2022/06/10 11:37:55;;;;;;;1.20;1.10;;;20.80;49.10;;;;;;4984110;28;20447;-58
2022/06/10 11:40:36;;;;;;;1.77;1.67;;;20.80;49.10;;;;;;4982274;28;20451;-58
2022/06/10 11:43:12;;;;;;;1.30;1.20;;;20.80;49.10;;;;;;4988895;28;20428;-58
2022/06/10 11:45:43;;;;;;;1.33;1.13;;;20.80;49.10;;;;;;4984762;28;20462;-58
2022/06/10 11:48:25;;;;;;;1.33;1.23;;;20.80;49.10;;;;;;4984658;28;20437;-58
2022/06/10 11:51:02;;;;;;;2.27;1.10;;;20.80;49.10;;;;;;4982865;28;20483;-57
2022/06/10 11:54:02;;;;;;;1.20;1.10;;;20.80;49.10;;;;;;4982293;28;20443;-58
2022/06/10 11:59:45;;;;;;;1.30;1.20;;;20.80;49.10;;;;;;4983739;28;20457;-58
2022/06/10 12:02:35;;;;;;;1.10;1.00;;;20.80;49.20;;;;;;4981692;28;20959;-58
2022/06/10 12:05:11;;;;;;;1.17;1.07;;;20.80;49.20;;;;;;5000341;28;20455;-58
2022/06/10 12:07:44;;;;;;;1.27;1.17;;;20.80;49.20;;;;;;4982528;28;20494;-58
2022/06/10 12:10:18;;;;;;;1.80;1.70;;;20.80;49.20;;;;;;4982615;28;20463;-58
2022/06/10 12:12:45;;;;;;;1.53;1.07;;;20.80;49.20;;;;;;4984341;28;20466;-58
2022/06/10 12:15:34;;;;;;;1.87;1.30;;;20.80;49.10;;;;;;4981574;28;20463;-58
2022/06/10 12:18:05;;;;;;;1.47;1.20;;;20.80;49.10;;;;;;4981810;28;20491;-58
2022/06/10 12:20:43;;;;;;;1.20;1.10;;;20.80;49.20;;;;;;4982786;28;20525;-58
2022/06/10 12:23:34;;;;;;;1.20;1.10;;;20.80;49.20;;;;;;4979700;28;20457;-58
2022/06/10 12:26:17;;;;;;;1.13;1.03;;;20.80;49.10;;;;;;4982018;28;20479;-58
2022/06/10 12:28:52;;;;;;;1.43;1.33;;;20.80;49.10;;;;;;4983770;28;20481;-58
2022/06/10 12:31:32;;;;;;;1.37;1.27;;;20.80;49.20;;;;;;4982076;28;20490;-58
2022/06/10 12:34:24;;;;;;;1.20;1.10;;;20.80;49.20;;;;;;4996646;28;20820;-58
2022/06/10 12:36:56;;;;;;;1.30;1.20;;;20.80;49.20;;;;;;4975134;28;20481;-58
2022/06/10 12:39:34;;;;;;;1.10;1.00;;;20.80;49.20;;;;;;4983215;28;20529;-58
2022/06/10 12:42:16;;;;;;;1.40;1.30;;;20.80;49.20;;;;;;4982032;28;21018;-58
2022/06/10 12:44:49;;;;;;;1.27;1.17;;;20.80;49.20;;;;;;4980962;28;20447;-58
2022/06/10 12:47:23;;;;;;;1.30;1.20;;;20.80;49.20;;;;;;4979980;28;20429;-58
2022/06/10 12:49:58;;;;;;;1.50;1.40;;;20.80;49.20;;;;;;4979267;28;20429;-58
2022/06/10 12:52:54;;;;;;;1.30;1.20;;;20.80;49.20;;;;;;4978398;28;20464;-58
2022/06/10 12:55:51;;;;;;;1.20;1.10;;;20.80;49.10;;;;;;4984804;28;20450;-58
2022/06/10 12:58:36;;;;;;;1.10;1.03;;;20.80;49.20;;;;;;4997953;28;20923;-58
2022/06/10 13:01:20;;;;;;;1.40;1.30;;;20.80;49.20;;;;;;4977804;28;20534;-58
2022/06/10 13:04:09;;;;;;;1.30;1.20;;;20.80;49.20;;;;;;4981422;28;20454;-58
2022/06/10 13:06:41;;;;;;;1.33;1.23;;;20.80;49.20;;;;;;4984360;28;20450;-58
2022/06/10 13:09:10;;;;;;;1.30;1.20;;;20.80;49.20;;;;;;4979800;28;20587;-58
2022/06/10 13:11:49;;;;;;;1.23;1.13;;;20.80;49.20;;;;;;4983054;28;20467;-58
2022/06/10 13:14:20;;;;;;;1.40;1.30;;;20.80;49.20;;;;;;4981518;28;20466;-58
2022/06/10 13:16:57;;;;;;;1.50;1.30;;;20.80;49.20;;;;;;4983728;28;20449;-58
2022/06/10 13:19:36;;;;;;;1.40;1.30;;;20.80;49.10;;;;;;4983019;28;20461;-58
2022/06/10 13:22:17;;;;;;;1.37;1.27;;;20.80;49.10;;;;;;4980886;28;20480;-58
2022/06/10 13:25:01;;;;;;;1.40;1.30;;;20.80;49.20;;;;;;4984702;28;20549;-58
2022/06/10 13:27:32;;;;;;;1.50;1.40;;;20.80;49.20;;;;;;4978862;28;20462;-56
2022/06/10 13:30:17;;;;;;;1.33;1.23;;;20.80;49.20;;;;;;4979440;28;20886;-58
2022/06/10 13:32:46;;;;;;;1.40;1.30;;;20.80;49.20;;;;;;4980159;28;20582;-58